Time;durP1;ratioP1;P1;durP2;ratioP2;P2;SDS_P1;SDS_P2;PMS_P1;PMS_P2;Temp;Humidity;BMP_temperature;BMP_pressure;BME280_temperature;BME280_humidity;BME280_pressure;Samples;Min_cycle;Max_cycle;Signal;HPM_P1;HPM_P2
2023/04/26 00:02:22;;;;;;;4.60;4.20;;;;;;;4.64;99.38;95664.91;5053060;28;20441;-77
2023/04/26 00:04:54;;;;;;;4.28;3.88;;;;;;;4.59;99.92;95660.00;5047879;28;20021;-76
2023/04/26 00:07:24;;;;;;;5.68;4.75;;;;;;;4.55;99.16;95661.16;5052086;28;20822;-76
2023/04/26 00:09:53;;;;;;;5.10;4.43;;;;;;;4.54;98.65;95654.28;5050904;28;20570;-76
2023/04/26 00:12:19;;;;;;;4.97;4.43;;;;;;;4.50;99.75;95652.78;5052548;28;20048;-77
2023/04/26 00:14:45;;;;;;;12.77;4.30;;;;;;;4.50;100.00;95657.19;5048202;28;20032;-76
2023/04/26 00:17:10;;;;;;;6.65;4.40;;;;;;;4.47;100.00;95658.22;5060281;28;20025;-77
2023/04/26 00:19:35;;;;;;;6.32;4.70;;;;;;;4.41;100.00;95661.25;5049366;28;20017;-76
2023/04/26 00:22:01;;;;;;;5.22;4.80;;;;;;;4.41;100.00;95666.47;5054160;28;20025;-76
2023/04/26 00:24:27;;;;;;;5.45;4.53;;;;;;;4.38;99.90;95664.91;5053028;28;20076;-76
2023/04/26 00:26:54;;;;;;;5.45;4.55;;;;;;;4.36;100.00;95660.75;5052228;28;20362;-76
2023/04/26 00:29:19;;;;;;;4.68;4.28;;;;;;;4.37;100.00;95665.00;5054811;28;20017;-76
2023/04/26 00:31:45;;;;;;;5.70;4.50;;;;;;;4.33;99.95;95660.94;5047155;28;20028;-76
2023/04/26 00:34:10;;;;;;;5.85;3.72;;;;;;;4.29;100.00;95668.97;5050740;28;20102;-76
2023/04/26 00:36:36;;;;;;;4.75;4.28;;;;;;;4.30;100.00;95669.81;5051316;28;20091;-76
2023/04/26 00:39:01;;;;;;;6.25;4.05;;;;;;;4.27;100.00;95678.66;5050909;28;20416;-76
2023/04/26 00:41:27;;;;;;;5.53;4.55;;;;;;;4.25;99.98;95672.72;5050978;28;20021;-76
2023/04/26 00:43:52;;;;;;;4.72;3.72;;;;;;;4.27;99.72;95681.25;5051607;28;20123;-77
2023/04/26 00:46:17;;;;;;;4.20;3.90;;;;;;;4.27;100.00;95678.66;5050382;28;20025;-77
2023/04/26 00:48:43;;;;;;;4.75;4.03;;;;;;;4.24;100.00;95671.03;5052056;28;20028;-76
2023/04/26 00:51:08;;;;;;;5.75;4.40;;;;;;;4.13;100.00;95679.59;5047877;28;20392;-76
2023/04/26 00:53:34;;;;;;;4.72;4.18;;;;;;;4.07;100.00;95681.75;5053439;28;20028;-76
2023/04/26 00:56:00;;;;;;;4.40;4.05;;;;;;;4.07;100.00;95677.41;5049992;28;20100;-76
2023/04/26 00:58:26;;;;;;;5.13;3.53;;;;;;;4.08;100.00;95683.44;5051980;28;20109;-77
2023/04/26 01:00:51;;;;;;;4.72;3.95;;;;;;;4.06;100.00;95686.16;5047117;28;20556;-76
2023/04/26 01:03:17;;;;;;;7.05;4.18;;;;;;;4.05;100.00;95694.06;5051688;28;20021;-76
2023/04/26 01:05:43;;;;;;;5.05;3.78;;;;;;;4.06;100.00;95693.13;5068191;28;20025;-76
2023/04/26 01:08:09;;;;;;;5.18;4.05;;;;;;;4.03;100.00;95693.31;5047013;28;20043;-77
2023/04/26 01:10:35;;;;;;;3.83;3.53;;;;;;;3.99;100.00;95695.31;5053492;28;20025;-76
2023/04/26 01:13:00;;;;;;;5.05;4.00;;;;;;;3.91;100.00;95695.81;5053495;28;20021;-76
2023/04/26 01:15:29;;;;;;;4.20;3.80;;;;;;;3.91;100.00;95692.38;5047211;28;20029;-76
2023/04/26 01:17:56;;;;;;;4.57;4.15;;;;;;;3.86;100.00;95695.25;5051805;28;20021;-76
2023/04/26 01:20:21;;;;;;;6.40;4.10;;;;;;;3.86;100.00;95697.88;5050046;28;20021;-76
2023/04/26 01:22:47;;;;;;;3.90;3.60;;;;;;;3.92;100.00;95700.09;5053686;28;20021;-75
2023/04/26 01:25:12;;;;;;;3.90;3.65;;;;;;;3.91;100.00;95702.78;5054655;28;20020;-77
2023/04/26 01:27:38;;;;;;;4.60;4.20;;;;;;;3.89;100.00;95705.50;5054015;28;20056;-76
2023/04/26 01:30:05;;;;;;;4.72;4.05;;;;;;;3.89;100.00;95704.66;5055794;28;20025;-76
2023/04/26 01:32:30;;;;;;;3.92;3.53;;;;;;;3.85;100.00;95704.88;5058123;28;20043;-76
2023/04/26 01:34:55;;;;;;;4.68;4.03;;;;;;;3.77;100.00;95701.94;5049107;28;20494;-76
2023/04/26 01:37:21;;;;;;;4.18;3.78;;;;;;;3.73;100.00;95701.28;5060734;28;20080;-77
2023/04/26 01:39:46;;;;;;;4.28;3.88;;;;;;;3.72;100.00;95709.19;5056208;28;20045;-76
2023/04/26 01:42:12;;;;;;;4.32;3.92;;;;;;;3.75;100.00;95698.56;5050260;28;20026;-77
2023/04/26 01:44:38;;;;;;;5.03;4.55;;;;;;;3.77;100.00;95703.69;5056982;28;20028;-77
2023/04/26 01:47:03;;;;;;;4.80;4.35;;;;;;;3.77;100.00;95701.09;5049804;28;20063;-76
2023/04/26 01:49:29;;;;;;;4.78;4.07;;;;;;;3.69;100.00;95699.81;5049058;28;20127;-76
2023/04/26 01:51:54;;;;;;;3.90;3.35;;;;;;;3.61;100.00;95691.66;5057855;28;20025;-77
2023/04/26 01:54:20;;;;;;;6.30;4.00;;;;;;;3.62;100.00;95688.13;5053717;28;20029;-76
2023/04/26 01:56:45;;;;;;;5.40;3.83;;;;;;;3.66;100.00;95699.19;5054883;28;20025;-77
2023/04/26 01:59:11;;;;;;;3.88;3.45;;;;;;;3.64;100.00;95685.41;5050844;28;20025;-77
2023/04/26 02:01:36;;;;;;;3.83;3.50;;;;;;;3.63;100.00;95681.16;5051081;28;20099;-76
2023/04/26 02:04:02;;;;;;;9.32;4.50;;;;;;;3.62;100.00;95685.50;5054073;28;21083;-77
2023/04/26 02:06:27;;;;;;;4.60;4.15;;;;;;;3.62;100.00;95682.91;5051973;28;20028;-75
2023/04/26 02:08:52;;;;;;;4.78;3.88;;;;;;;3.60;100.00;95694.38;5055184;28;20029;-76
2023/04/26 02:11:18;;;;;;;4.45;4.05;;;;;;;3.62;100.00;95679.47;5055329;28;20094;-75
2023/04/26 02:13:43;;;;;;;4.88;3.97;;;;;;;3.61;100.00;95678.63;5054227;28;20025;-76
2023/04/26 02:16:09;;;;;;;3.85;3.58;;;;;;;3.56;100.00;95683.31;5054601;28;20421;-75
2023/04/26 02:18:34;;;;;;;4.38;4.07;;;;;;;3.52;100.00;95682.66;5051336;28;20025;-76
2023/04/26 02:21:00;;;;;;;4.30;3.90;;;;;;;3.49;100.00;95682.88;5071655;28;20032;-76
2023/04/26 02:23:25;;;;;;;4.32;3.92;;;;;;;3.47;100.00;95678.72;5055907;28;20025;-76
2023/04/26 02:25:51;;;;;;;4.10;3.72;;;;;;;3.47;100.00;95678.72;5051069;28;20127;-76
2023/04/26 02:28:16;;;;;;;5.75;3.75;;;;;;;3.51;100.00;95682.78;5054923;28;20033;-75
2023/04/26 02:30:42;;;;;;;3.38;3.17;;;;;;;3.42;100.00;95676.38;5049706;28;20021;-76
2023/04/26 02:33:08;;;;;;;3.70;3.45;;;;;;;3.41;100.00;95678.16;5054212;28;20040;-76
2023/04/26 02:35:36;;;;;;;4.15;3.75;;;;;;;3.44;100.00;95685.78;5052664;28;20029;-76
2023/04/26 02:38:02;;;;;;;4.35;3.85;;;;;;;3.49;100.00;95676.84;5056199;28;20061;-76
2023/04/26 02:40:28;;;;;;;4.30;3.88;;;;;;;3.52;100.00;95671.44;5051590;28;20080;-75
2023/04/26 02:42:54;;;;;;;5.30;3.53;;;;;;;3.43;100.00;95665.91;5069904;28;20674;-76
2023/04/26 02:45:19;;;;;;;5.68;3.83;;;;;;;3.37;100.00;95666.28;5047156;28;20068;-76
2023/04/26 02:47:45;;;;;;;6.97;3.80;;;;;;;3.36;100.00;95666.38;5049920;28;20047;-76
2023/04/26 02:50:10;;;;;;;4.20;3.80;;;;;;;3.33;100.00;95654.38;5051912;28;20028;-76
2023/04/26 02:52:36;;;;;;;4.03;3.83;;;;;;;3.29;100.00;95661.53;5051242;28;20124;-76
2023/04/26 02:55:04;;;;;;;4.85;4.05;;;;;;;3.27;100.00;95662.59;5050245;28;20028;-76
2023/04/26 02:57:30;;;;;;;5.32;3.95;;;;;;;3.27;100.00;95657.41;5048516;28;20032;-75
2023/04/26 02:59:56;;;;;;;5.75;4.07;;;;;;;3.21;100.00;95653.41;5054197;28;20033;-76
2023/04/26 03:02:22;;;;;;;5.18;4.03;;;;;;;3.18;100.00;95642.34;5068517;28;20032;-75
2023/04/26 03:04:47;;;;;;;4.07;3.67;;;;;;;3.13;100.00;95653.88;5051119;28;20029;-76
2023/04/26 03:07:13;;;;;;;5.05;3.72;;;;;;;3.14;100.00;95659.94;5050748;28;20645;-76
2023/04/26 03:09:38;;;;;;;5.82;5.32;;;;;;;3.14;100.00;95654.75;5055420;28;20112;-76
2023/04/26 03:12:07;;;;;;;4.93;4.18;;;;;;;3.11;100.00;95658.34;5049011;28;20959;-75
2023/04/26 03:14:33;;;;;;;5.60;4.35;;;;;;;3.03;100.00;95663.22;5047933;28;20049;-76
2023/04/26 03:16:59;;;;;;;4.95;4.03;;;;;;;3.06;100.00;95665.63;5056305;28;20032;-76
2023/04/26 03:19:27;;;;;;;4.32;3.97;;;;;;;3.01;100.00;95663.31;5049249;28;20017;-76
2023/04/26 03:21:52;;;;;;;5.03;3.70;;;;;;;3.06;100.00;95654.38;5050302;28;20021;-76
2023/04/26 03:24:18;;;;;;;4.03;3.72;;;;;;;3.04;100.00;95658.84;5052535;28;20024;-76
2023/04/26 03:26:43;;;;;;;3.70;3.40;;;;;;;3.01;100.00;95662.47;5051482;28;20020;-76
2023/04/26 03:29:09;;;;;;;6.40;4.15;;;;;;;2.96;100.00;95654.09;5053133;28;20013;-76
2023/04/26 03:31:34;;;;;;;4.20;3.90;;;;;;;2.90;100.00;95662.31;5051167;28;20178;-76
2023/04/26 03:33:59;;;;;;;4.28;3.85;;;;;;;2.90;100.00;95660.56;5051798;28;20036;-76
2023/04/26 03:36:27;;;;;;;5.03;4.05;;;;;;;2.88;100.00;95651.16;5052639;28;20024;-76
2023/04/26 03:38:53;;;;;;;5.65;4.78;;;;;;;2.86;100.00;95653.84;5053575;28;20045;-76
2023/04/26 03:41:18;;;;;;;4.10;3.80;;;;;;;2.82;100.00;95657.56;5048846;28;20152;-76
2023/04/26 03:43:44;;;;;;;6.93;3.80;;;;;;;2.78;100.00;95640.50;5052305;28;20052;-76
2023/04/26 03:46:09;;;;;;;4.07;3.78;;;;;;;2.79;100.00;95656.00;5052263;28;20496;-75
2023/04/26 03:48:35;;;;;;;4.50;4.10;;;;;;;2.79;100.00;95657.75;5047959;28;20020;-75
2023/04/26 03:51:01;;;;;;;4.22;3.90;;;;;;;2.79;100.00;95658.63;5055065;28;20013;-76
2023/04/26 03:53:26;;;;;;;6.13;4.28;;;;;;;2.78;100.00;95651.75;5055389;28;20040;-75
2023/04/26 03:55:51;;;;;;;4.72;4.25;;;;;;;2.74;100.00;95646.81;5054983;28;20029;-76
2023/04/26 03:58:17;;;;;;;5.38;4.22;;;;;;;2.69;100.00;95641.91;5054759;28;20028;-76
2023/04/26 04:00:42;;;;;;;4.40;3.92;;;;;;;2.75;100.00;95644.09;5054088;28;20023;-75
2023/04/26 04:03:08;;;;;;;5.07;3.58;;;;;;;2.70;100.00;95646.16;5053088;28;20029;-76
2023/04/26 04:05:33;;;;;;;5.55;4.30;;;;;;;2.69;100.00;95644.50;5047740;28;20028;-76
2023/04/26 04:07:59;;;;;;;4.70;4.30;;;;;;;2.72;100.00;95652.94;5053443;28;20025;-75
2023/04/26 04:10:24;;;;;;;5.32;4.82;;;;;;;2.72;100.00;95652.94;5053636;28;20025;-77
2023/04/26 04:12:51;;;;;;;6.20;5.50;;;;;;;2.74;100.00;95652.84;5055363;28;20104;-75
2023/04/26 04:15:17;;;;;;;7.45;5.78;;;;;;;2.74;100.00;95644.22;5053257;28;20480;-76
2023/04/26 04:17:43;;;;;;;7.05;6.35;;;;;;;2.67;100.00;95644.59;5052712;28;20503;-77
2023/04/26 04:20:09;;;;;;;8.07;7.30;;;;;;;2.67;100.00;95631.59;5055213;28;20022;-76
2023/04/26 04:22:35;;;;;;;12.57;9.60;;;;;;;2.71;100.00;95635.69;5054673;28;20013;-75
2023/04/26 04:25:03;;;;;;;16.50;10.02;;;;;;;2.69;100.00;95641.91;5055014;28;20028;-77
2023/04/26 04:27:29;;;;;;;17.45;10.50;;;;;;;2.71;100.00;95637.44;5047390;28;20104;-77
2023/04/26 04:29:54;;;;;;;19.77;11.32;;;;;;;2.66;100.00;95639.50;5057391;28;20056;-76
2023/04/26 04:32:22;;;;;;;15.25;11.07;;;;;;;2.63;100.00;95642.28;5053306;28;20488;-76
2023/04/26 04:34:48;;;;;;;14.63;11.07;;;;;;;2.65;100.00;95643.88;5054734;28;20024;-76
2023/04/26 04:37:14;;;;;;;11.20;8.25;;;;;;;2.67;100.00;95651.56;5054199;28;20021;-75
2023/04/26 04:39:39;;;;;;;9.13;7.82;;;;;;;2.60;100.00;95648.50;5054749;28;20065;-75
2023/04/26 04:42:05;;;;;;;8.82;7.93;;;;;;;2.55;100.00;95654.00;5053948;28;20020;-76
2023/04/26 04:44:31;;;;;;;9.98;7.28;;;;;;;2.58;100.00;95653.81;5054873;28;20025;-77
2023/04/26 04:46:57;;;;;;;11.05;6.93;;;;;;;2.57;100.00;95653.88;5054768;28;20033;-75
2023/04/26 04:49:23;;;;;;;12.23;7.47;;;;;;;2.60;100.00;95668.47;5054783;28;20029;-75
2023/04/26 04:51:49;;;;;;;7.80;6.10;;;;;;;2.66;100.00;95668.09;5054630;28;20032;-76
2023/04/26 04:54:16;;;;;;;6.15;5.55;;;;;;;2.70;100.00;95669.56;5054552;28;20021;-75
2023/04/26 04:56:42;;;;;;;9.30;6.93;;;;;;;2.66;100.00;95678.47;5055045;28;20096;-75
2023/04/26 04:59:08;;;;;;;10.00;7.75;;;;;;;2.65;100.00;95688.06;5058260;28;20126;-77
2023/04/26 05:01:35;;;;;;;7.70;6.60;;;;;;;2.61;100.00;95683.94;5049068;28;20025;-77
2023/04/26 05:04:00;;;;;;;9.35;6.28;;;;;;;2.56;100.00;95697.25;5058598;28;20055;-78
2023/04/26 05:06:26;;;;;;;6.60;5.60;;;;;;;2.53;100.00;95694.00;5058372;28;20021;-77
2023/04/26 05:08:53;;;;;;;5.70;5.13;;;;;;;2.61;100.00;95703.94;5058134;28;20602;-76
2023/04/26 05:11:18;;;;;;;5.88;4.28;;;;;;;2.64;100.00;95707.16;5055346;28;20056;-75
2023/04/26 05:13:45;;;;;;;4.60;4.30;;;;;;;2.64;100.00;95707.16;5057390;28;20017;-84
2023/04/26 05:16:11;;;;;;;6.10;5.60;;;;;;;2.68;100.00;95719.06;5055900;28;20040;-82
2023/04/26 05:18:36;;;;;;;6.70;6.10;;;;;;;2.73;100.00;95716.16;5053136;28;20412;-75
2023/04/26 05:21:02;;;;;;;9.23;8.43;;;;;;;2.80;100.00;95719.25;5053703;28;20033;-79
2023/04/26 05:23:27;;;;;;;9.27;8.32;;;;;;;2.85;100.00;95720.63;5052611;28;20045;-77
2023/04/26 05:25:53;;;;;;;6.22;5.72;;;;;;;2.91;100.00;95726.38;5065125;28;20025;-75
2023/04/26 05:28:18;;;;;;;5.35;4.47;;;;;;;2.96;100.00;95722.59;5058217;28;20102;-81
2023/04/26 05:30:43;;;;;;;4.80;3.88;;;;;;;3.07;100.00;95721.91;5057793;28;20021;-76
2023/04/26 05:33:09;;;;;;;4.53;4.05;;;;;;;3.17;100.00;95718.72;5056695;28;20021;-75
2023/04/26 05:35:35;;;;;;;5.13;4.72;;;;;;;3.27;100.00;95722.44;5051695;28;20024;-75
2023/04/26 05:38:00;;;;;;;7.25;5.70;;;;;;;3.32;100.00;95720.38;5057694;28;20123;-75
2023/04/26 05:40:25;;;;;;;9.48;7.07;;;;;;;3.38;100.00;95724.38;5058222;28;20047;-78
2023/04/26 05:42:51;;;;;;;9.25;7.85;;;;;;;3.46;100.00;95726.50;5057399;28;20159;-75
2023/04/26 05:45:16;;;;;;;9.80;7.50;;;;;;;3.53;100.00;95719.97;5057746;28;20025;-79
2023/04/26 05:47:42;;;;;;;7.47;6.88;;;;;;;3.55;100.00;95724.16;5057330;28;20017;-76
2023/04/26 05:50:08;;;;;;;7.78;6.88;;;;;;;3.65;100.00;95724.41;5056211;28;20828;-77
2023/04/26 05:52:33;;;;;;;8.50;6.25;;;;;;;3.75;99.50;95722.00;5057485;28;20036;-78
2023/04/26 05:55:02;;;;;;;6.93;6.22;;;;;;;3.78;99.00;95726.19;5057621;28;20166;-76
2023/04/26 05:57:27;;;;;;;6.57;6.00;;;;;;;3.81;98.88;95733.81;5057661;28;20033;-76
2023/04/26 05:59:52;;;;;;;9.18;7.38;;;;;;;3.84;99.13;95728.38;5057678;28;20032;-79
2023/04/26 06:02:18;;;;;;;10.85;7.13;;;;;;;4.05;98.41;95725.31;5057030;28;20032;-75
2023/04/26 06:04:43;;;;;;;8.68;6.90;;;;;;;4.35;96.16;95726.84;5057319;28;20021;-74
2023/04/26 06:07:08;;;;;;;8.93;6.65;;;;;;;4.57;96.37;95731.44;5057091;28;20118;-78
2023/04/26 06:09:34;;;;;;;10.25;6.53;;;;;;;4.80;96.87;95727.28;5051825;28;20488;-86
2023/04/26 06:12:01;;;;;;;7.65;6.25;;;;;;;4.97;95.13;95733.06;5053886;28;20108;-76
2023/04/26 06:14:26;;;;;;;16.75;8.98;;;;;;;5.02;92.19;95731.81;5054345;28;20033;-79
2023/04/26 06:16:52;;;;;;;16.70;8.40;;;;;;;5.16;92.20;95728.25;5054577;28;20021;-80
2023/04/26 06:19:17;;;;;;;12.30;7.05;;;;;;;5.43;91.29;95740.31;5056919;28;20024;-78
2023/04/26 06:21:42;;;;;;;7.43;5.38;;;;;;;5.74;89.12;95730.28;5053387;28;20029;-81
2023/04/26 06:24:08;;;;;;;18.98;8.27;;;;;;;6.05;86.58;95731.63;5050605;28;20078;-79
2023/04/26 06:26:33;;;;;;;13.32;7.53;;;;;;;6.36;85.17;95740.63;5057263;28;20040;-76
2023/04/26 06:28:59;;;;;;;7.82;5.82;;;;;;;6.70;84.05;95734.63;5047165;28;20020;-79
2023/04/26 06:31:24;;;;;;;5.70;4.20;;;;;;;7.02;82.82;95737.41;5055016;28;20028;-85
2023/04/26 06:33:50;;;;;;;5.30;3.90;;;;;;;7.32;81.54;95737.75;5056480;28;20104;-75
2023/04/26 06:36:15;;;;;;;3.35;3.08;;;;;;;7.66;78.68;95737.72;5055338;28;20032;-75
2023/04/26 06:38:40;;;;;;;4.53;3.17;;;;;;;8.02;76.81;95729.63;5052993;28;20582;-74
2023/04/26 06:41:07;;;;;;;3.63;3.20;;;;;;;8.35;74.55;95729.59;5054380;28;20021;-75
2023/04/26 06:43:32;;;;;;;3.80;2.65;;;;;;;8.28;71.17;95727.44;5050604;28;20393;-75
2023/04/26 06:45:58;;;;;;;4.53;3.05;;;;;;;8.55;73.41;95734.03;5044411;28;20033;-80
2023/04/26 06:48:23;;;;;;;3.00;2.80;;;;;;;9.05;72.16;95735.13;5049417;28;20781;-83
2023/04/26 06:50:48;;;;;;;3.20;2.90;;;;;;;9.53;69.70;95740.69;5053898;28;20067;-74
2023/04/26 06:53:14;;;;;;;4.45;2.70;;;;;;;9.89;66.84;95735.78;5055130;28;20028;-75
2023/04/26 06:55:39;;;;;;;4.38;3.15;;;;;;;10.02;65.09;95733.72;5055809;28;20119;-78
2023/04/26 06:58:05;;;;;;;4.30;2.58;;;;;;;10.38;63.54;95735.78;5053216;28;20037;-77
2023/04/26 07:00:30;;;;;;;6.05;2.80;;;;;;;10.61;62.74;95732.91;5054021;28;20025;-76
2023/04/26 07:02:56;;;;;;;3.17;2.65;;;;;;;10.78;61.13;95731.34;5056270;28;20021;-76
2023/04/26 07:05:21;;;;;;;4.35;2.80;;;;;;;11.13;59.92;95718.47;5056114;28;20080;-77
2023/04/26 07:07:48;;;;;;;4.80;2.65;;;;;;;11.51;60.48;95713.16;5056473;28;20013;-76
2023/04/26 07:10:13;;;;;;;4.75;2.67;;;;;;;12.11;57.43;95710.03;5056512;28;20027;-76
2023/04/26 07:12:39;;;;;;;2.63;2.30;;;;;;;12.54;53.75;95698.81;5056631;28;20021;-75
2023/04/26 07:15:05;;;;;;;3.70;2.70;;;;;;;12.74;53.66;95692.34;5054454;28;20029;-78
2023/04/26 07:17:31;;;;;;;2.63;2.20;;;;;;;13.14;52.07;95694.56;5056132;28;20025;-79
2023/04/26 07:19:57;;;;;;;2.50;2.13;;;;;;;13.55;49.52;95680.69;5055535;28;20029;-77
2023/04/26 07:22:22;;;;;;;2.60;2.30;;;;;;;13.90;50.39;95687.56;5055969;28;20027;-77
2023/04/26 07:24:48;;;;;;;3.83;2.15;;;;;;;13.97;48.66;95684.28;5056103;28;20496;-77
2023/04/26 07:27:13;;;;;;;5.72;4.38;;;;;;;14.38;49.04;95676.38;5055695;28;20017;-77
2023/04/26 07:29:39;;;;;;;5.80;3.30;;;;;;;14.59;44.48;95681.13;5056584;28;20025;-77
2023/04/26 07:32:05;;;;;;;2.90;2.70;;;;;;;14.68;44.28;95681.13;5054422;28;20076;-77
2023/04/26 07:34:31;;;;;;;3.47;2.58;;;;;;;15.01;42.52;95678.44;5055639;28;20025;-77
2023/04/26 07:36:56;;;;;;;3.03;2.38;;;;;;;15.10;41.90;95680.06;5055590;28;20484;-77
2023/04/26 07:39:23;;;;;;;3.72;2.55;;;;;;;15.72;42.95;95683.78;5042303;28;20132;-75
2023/04/26 07:41:48;;;;;;;3.20;2.83;;;;;;;16.02;41.07;95673.31;5056068;28;20036;-75
2023/04/26 07:44:13;;;;;;;2.90;2.03;;;;;;;16.09;39.81;95685.91;5055389;28;20020;-75
2023/04/26 07:46:39;;;;;;;2.85;1.90;;;;;;;16.30;36.81;95680.78;5055464;28;20044;-75
2023/04/26 07:49:04;;;;;;;2.35;2.03;;;;;;;15.98;38.71;95680.00;5055618;28;20060;-75
2023/04/26 07:51:30;;;;;;;6.22;2.55;;;;;;;15.93;40.62;95682.38;5055412;28;20029;-76
2023/04/26 07:53:56;;;;;;;2.25;1.73;;;;;;;16.41;38.35;95684.00;5053930;28;20029;-76
2023/04/26 07:56:25;;;;;;;1.90;1.73;;;;;;;16.70;38.06;95675.28;5055667;28;20017;-75
2023/04/26 07:58:51;;;;;;;4.50;2.03;;;;;;;15.88;39.54;95666.94;5055014;28;20024;-75
2023/04/26 08:01:16;;;;;;;2.38;2.10;;;;;;;16.40;39.13;95671.72;5055173;28;20556;-75
2023/04/26 08:03:41;;;;;;;2.40;1.98;;;;;;;16.76;38.31;95674.56;5055731;28;20017;-75
2023/04/26 08:06:10;;;;;;;2.00;1.90;;;;;;;17.08;36.81;95666.44;5055013;28;20029;-75
2023/04/26 08:08:43;;;;;;;2.85;2.30;;;;;;;17.17;36.87;95680.50;5055080;28;20032;-76
2023/04/26 08:11:09;;;;;;;2.70;2.20;;;;;;;17.61;37.44;95668.16;5055127;28;20162;-75
2023/04/26 08:13:34;;;;;;;2.10;1.80;;;;;;;17.33;33.89;95672.31;5058312;28;20051;-76
2023/04/26 08:16:00;;;;;;;2.90;1.75;;;;;;;17.55;34.88;95666.22;5054921;28;20013;-75
2023/04/26 08:18:25;;;;;;;2.50;2.33;;;;;;;17.87;34.31;95670.28;5055006;28;20036;-75
2023/04/26 08:20:54;;;;;;;2.45;2.20;;;;;;;18.03;35.54;95674.59;5054974;28;20017;-75
2023/04/26 08:23:19;;;;;;;3.08;2.05;;;;;;;18.19;33.05;95675.34;5054836;28;20071;-76
2023/04/26 08:25:44;;;;;;;5.10;2.20;;;;;;;18.38;33.44;95681.91;5055246;28;20025;-75
2023/04/26 08:28:13;;;;;;;3.47;2.85;;;;;;;17.82;34.29;95682.53;5055517;28;20516;-78
2023/04/26 08:30:39;;;;;;;2.90;2.42;;;;;;;17.50;35.03;95687.25;5054845;28;20108;-74
2023/04/26 08:33:04;;;;;;;5.88;3.30;;;;;;;17.22;37.19;95695.91;5058078;28;20042;-74
2023/04/26 08:35:29;;;;;;;5.75;3.67;;;;;;;16.86;38.80;95695.56;5054448;28;20025;-75
2023/04/26 08:37:55;;;;;;;3.72;3.33;;;;;;;16.89;38.57;95695.19;5058718;28;20079;-76
2023/04/26 08:40:23;;;;;;;3.88;2.65;;;;;;;17.18;37.29;95695.44;5058151;28;20029;-75
2023/04/26 08:42:51;;;;;;;6.38;3.10;;;;;;;16.83;38.44;95695.13;5059064;28;20100;-78
2023/04/26 08:45:17;;;;;;;4.95;2.50;;;;;;;16.56;38.20;95689.34;5059462;28;20052;-74
2023/04/26 08:47:46;;;;;;;4.55;2.42;;;;;;;16.84;37.81;95681.63;5055214;28;20049;-75
2023/04/26 08:50:13;;;;;;;3.72;3.10;;;;;;;17.12;37.05;95696.97;5043274;28;20036;-75
2023/04/26 08:52:40;;;;;;;3.63;2.50;;;;;;;17.24;36.37;95688.56;5056320;28;20560;-75
2023/04/26 08:55:08;;;;;;;2.25;2.08;;;;;;;17.72;35.32;95693.47;5059115;28;20493;-75
2023/04/26 08:57:34;;;;;;;2.03;1.85;;;;;;;17.98;35.54;95690.25;5058824;28;20040;-75
2023/04/26 09:00:04;;;;;;;5.07;2.85;;;;;;;18.32;34.05;95688.81;5058222;28;20025;-74
2023/04/26 09:02:30;;;;;;;5.57;2.10;;;;;;;18.26;36.07;95686.91;5058518;28;20036;-75
2023/04/26 09:04:55;;;;;;;5.50;2.35;;;;;;;18.25;35.92;95698.59;5048204;28;20017;-75
2023/04/26 09:07:34;;;;;;;3.35;2.30;;;;;;;18.59;34.97;95697.03;5056443;28;20024;-75
2023/04/26 09:10:03;;;;;;;3.90;2.72;;;;;;;19.41;32.24;95701.94;5065763;28;20508;-74
2023/04/26 09:12:28;;;;;;;2.50;2.30;;;;;;;18.63;35.25;95699.31;5058904;28;20059;-75
2023/04/26 09:14:55;;;;;;;5.30;2.88;;;;;;;18.95;34.72;95703.25;5058933;28;20025;-76
2023/04/26 09:17:31;;;;;;;4.95;2.53;;;;;;;18.79;32.71;95704.38;5058056;28;20021;-77
2023/04/26 09:19:57;;;;;;;4.15;2.28;;;;;;;18.55;33.48;95695.78;5058564;28;20074;-75
2023/04/26 09:22:34;;;;;;;2.72;2.40;;;;;;;18.45;33.94;95697.91;5058160;28;20035;-75
2023/04/26 09:25:02;;;;;;;4.93;2.60;;;;;;;18.47;35.73;95699.38;5058594;28;20021;-75
2023/04/26 09:27:36;;;;;;;3.90;2.50;;;;;;;18.12;36.47;95696.59;5056654;28;20485;-75
2023/04/26 09:30:08;;;;;;;10.23;3.75;;;;;;;18.49;34.93;95696.53;5058574;28;20025;-74
2023/04/26 09:32:46;;;;;;;4.78;3.05;;;;;;;18.67;34.98;95684.56;5044487;28;20029;-75
2023/04/26 09:35:41;;;;;;;2.70;2.13;;;;;;;18.63;33.70;95688.66;5057242;28;20028;-74
2023/04/26 09:38:11;;;;;;;3.22;2.20;;;;;;;18.13;34.96;95692.09;5055307;28;20086;-74
2023/04/26 09:40:42;;;;;;;4.95;2.10;;;;;;;18.62;34.57;95687.84;5050741;28;20393;-74
2023/04/26 09:43:11;;;;;;;7.55;3.35;;;;;;;18.87;34.92;95684.75;5057354;28;20020;-73
2023/04/26 09:45:51;;;;;;;4.13;2.38;;;;;;;17.56;35.40;95678.53;5051599;28;20048;-75
2023/04/26 09:48:17;;;;;;;2.95;2.33;;;;;;;17.83;36.40;95678.84;5053819;28;20017;-75
2023/04/26 09:50:47;;;;;;;2.15;1.98;;;;;;;18.73;36.94;95681.16;5057755;28;20025;-75
2023/04/26 09:53:32;;;;;;;2.42;2.20;;;;;;;19.76;32.95;95680.50;5057396;28;20025;-75
2023/04/26 09:56:07;;;;;;;3.20;2.30;;;;;;;19.72;32.92;95675.78;5057703;28;20040;-75
2023/04/26 09:58:32;;;;;;;4.57;2.28;;;;;;;19.02;34.65;95679.31;5057535;28;20045;-75
2023/04/26 10:00:59;;;;;;;3.80;2.45;;;;;;;19.54;34.03;95679.81;5057607;28;20471;-75
2023/04/26 10:03:25;;;;;;;3.55;2.30;;;;;;;19.39;33.10;95674.63;5058013;28;20020;-76
2023/04/26 10:05:51;;;;;;;2.40;2.20;;;;;;;20.39;31.29;95667.94;5061923;28;20396;-75
2023/04/26 10:08:17;;;;;;;4.18;2.10;;;;;;;20.21;31.82;95670.38;5065370;28;20056;-77
2023/04/26 10:10:44;;;;;;;2.22;1.88;;;;;;;19.85;30.13;95662.44;5057527;28;20024;-75
2023/04/26 10:13:11;;;;;;;2.90;2.15;;;;;;;19.26;32.16;95661.19;5057213;28;20028;-74
2023/04/26 10:15:38;;;;;;;3.30;1.83;;;;;;;20.16;30.02;95663.81;5057056;28;20032;-76
2023/04/26 10:18:04;;;;;;;2.97;1.83;;;;;;;19.72;30.09;95660.56;5057318;28;20017;-75
2023/04/26 10:20:30;;;;;;;2.05;1.88;;;;;;;19.20;33.25;95657.47;5049256;28;20428;-75
2023/04/26 10:23:00;;;;;;;2.63;1.95;;;;;;;20.13;29.47;95652.69;5057503;28;20024;-75
2023/04/26 10:25:36;;;;;;;2.75;1.88;;;;;;;19.49;32.14;95652.06;5056835;28;20104;-76
2023/04/26 10:28:02;;;;;;;2.47;2.28;;;;;;;19.72;31.66;95649.88;5056982;28;20028;-75
2023/04/26 10:30:28;;;;;;;2.50;2.15;;;;;;;20.01;30.14;95655.13;5055936;28;20509;-75
2023/04/26 10:32:56;;;;;;;2.75;2.17;;;;;;;19.88;30.43;95654.03;5057051;28;20029;-75
2023/04/26 10:35:26;;;;;;;2.03;1.80;;;;;;;19.75;31.21;95646.81;5056678;28;20473;-76
2023/04/26 10:38:00;;;;;;;1.90;1.80;;;;;;;19.60;30.39;95638.97;5056412;28;20586;-76
2023/04/26 10:40:30;;;;;;;2.85;2.03;;;;;;;19.69;31.04;95633.44;5057088;28;20074;-75
2023/04/26 10:43:14;;;;;;;2.95;1.83;;;;;;;19.33;32.48;95619.34;5056907;28;20105;-75
2023/04/26 10:45:46;;;;;;;2.35;1.88;;;;;;;20.30;29.84;95629.88;5056729;28;20032;-75
2023/04/26 10:48:27;;;;;;;2.55;1.65;;;;;;;20.64;28.67;95623.69;5056374;28;20025;-78
2023/04/26 10:51:04;;;;;;;1.85;1.75;;;;;;;20.03;30.17;95624.53;5056739;28;20104;-75
2023/04/26 10:53:31;;;;;;;2.92;2.05;;;;;;;19.83;29.91;95616.41;5056555;28;20040;-75
2023/04/26 10:55:57;;;;;;;2.92;1.95;;;;;;;19.82;30.32;95621.97;5055657;28;20500;-75
2023/04/26 10:58:34;;;;;;;2.30;2.10;;;;;;;20.85;27.96;95615.47;5056774;28;20025;-75
2023/04/26 11:01:17;;;;;;;1.90;1.70;;;;;;;20.85;29.56;95610.13;5053741;28;20078;-75
2023/04/26 11:04:06;;;;;;;3.20;2.20;;;;;;;20.98;28.28;95608.47;5056654;28;20017;-74
2023/04/26 11:06:48;;;;;;;3.67;2.40;;;;;;;21.12;28.23;95599.38;5056306;28;20021;-77
2023/04/26 11:09:32;;;;;;;2.63;2.17;;;;;;;20.58;29.95;95599.44;5056037;28;20025;-77
2023/04/26 11:11:57;;;;;;;2.22;2.00;;;;;;;20.60;28.85;95594.69;5056130;28;20497;-75
2023/04/26 11:14:24;;;;;;;2.83;1.88;;;;;;;20.54;29.72;95595.53;5056201;28;20153;-79
2023/04/26 11:16:49;;;;;;;2.08;1.65;;;;;;;20.67;28.53;95588.50;5056514;28;20024;-80
2023/04/26 11:19:15;;;;;;;1.67;1.58;;;;;;;20.06;29.18;95590.41;5056312;28;20473;-75
2023/04/26 11:21:40;;;;;;;2.05;1.70;;;;;;;20.75;28.49;95589.13;5042972;28;20969;-75
2023/04/26 11:24:06;;;;;;;2.40;1.98;;;;;;;20.42;29.15;95578.47;5055405;28;20100;-77
2023/04/26 11:26:33;;;;;;;3.13;2.20;;;;;;;20.09;29.89;95584.66;5055177;28;20024;-76
2023/04/26 11:29:00;;;;;;;2.28;2.13;;;;;;;20.58;27.66;95586.06;5055284;28;20033;-75
2023/04/26 11:31:26;;;;;;;2.78;1.90;;;;;;;20.99;27.89;95584.16;5056147;28;20029;-75
2023/04/26 11:33:51;;;;;;;2.15;2.00;;;;;;;20.64;28.25;95587.09;5056404;28;20021;-73